Time;durP1;ratioP1;P1;durP2;ratioP2;P2;SDS_P1;SDS_P2;PMS_P1;PMS_P2;Temp;Humidity;BMP_temperature;BMP_pressure;BME280_temperature;BME280_humidity;BME280_pressure;Samples;Min_cycle;Max_cycle;Signal;HPM_P1;HPM_P2
2024/01/02 00:01:29;;;;;;;5.93;1.55;;;6.80;99.90;;;;;;7365454;32;20112;-55
2024/01/02 00:05:31;;;;;;;8.55;1.10;;;6.80;99.90;;;;;;7369092;32;20119;-56
2024/01/02 00:09:34;;;;;;;9.60;1.35;;;6.80;99.90;;;;;;7352173;32;20226;-56
2024/01/02 00:13:36;;;;;;;10.52;1.40;;;6.80;99.90;;;;;;7355613;32;20126;-55
2024/01/02 00:17:38;;;;;;;4.53;0.75;;;6.80;99.90;;;;;;7363344;32;20290;-57
2024/01/02 00:21:40;;;;;;;5.32;0.90;;;6.90;99.90;;;;;;7371677;32;20356;-57
2024/01/02 00:25:42;;;;;;;8.80;1.33;;;6.80;99.90;;;;;;7365417;32;20175;-55
2024/01/02 00:29:44;;;;;;;4.95;1.00;;;6.90;99.90;;;;;;7369648;32;20522;-56
2024/01/02 00:33:46;;;;;;;8.00;1.10;;;6.90;99.90;;;;;;7365241;32;20740;-56
2024/01/02 00:37:49;;;;;;;7.95;0.80;;;6.80;99.90;;;;;;7359382;32;20451;-56
2024/01/02 00:41:51;;;;;;;4.93;0.85;;;6.80;99.90;;;;;;7364181;32;20246;-56
2024/01/02 00:45:55;;;;;;;4.43;0.62;;;6.80;99.90;;;;;;7365629;32;20114;-57
2024/01/02 00:49:57;;;;;;;5.40;1.10;;;6.90;99.90;;;;;;7361015;32;20198;-55
2024/01/02 00:53:59;;;;;;;4.53;0.80;;;6.90;99.90;;;;;;7363630;32;20221;-56
2024/01/02 00:58:01;;;;;;;7.15;1.87;;;6.90;99.90;;;;;;7357569;32;20521;-56
2024/01/02 01:02:04;;;;;;;4.25;0.98;;;6.90;99.90;;;;;;7356150;32;20106;-55
2024/01/02 01:06:06;;;;;;;7.60;0.98;;;6.90;99.90;;;;;;7354067;32;20107;-57
2024/01/02 01:10:08;;;;;;;6.43;1.10;;;6.80;99.90;;;;;;7359739;32;20252;-55
2024/01/02 01:14:09;;;;;;;6.78;0.70;;;6.90;99.90;;;;;;7360068;32;20103;-57
2024/01/02 01:18:11;;;;;;;4.07;0.82;;;6.90;99.90;;;;;;7357359;32;20131;-55
2024/01/02 01:22:13;;;;;;;2.72;0.52;;;6.90;99.90;;;;;;7355532;32;20490;-56
2024/01/02 01:26:15;;;;;;;10.63;0.82;;;6.80;99.90;;;;;;7368523;32;20111;-56
2024/01/02 01:30:17;;;;;;;8.32;1.00;;;6.70;99.90;;;;;;7362346;32;20586;-56
2024/01/02 01:34:19;;;;;;;6.45;0.80;;;6.80;99.90;;;;;;7356894;32;20130;-58
2024/01/02 01:38:21;;;;;;;8.20;0.80;;;6.80;99.90;;;;;;7364198;32;20631;-56
2024/01/02 01:42:23;;;;;;;6.55;0.80;;;6.80;99.90;;;;;;7361426;32;20190;-57
2024/01/02 01:46:28;;;;;;;3.17;0.70;;;6.80;99.90;;;;;;7359635;32;20747;-55
2024/01/02 01:50:30;;;;;;;5.35;0.68;;;6.90;99.90;;;;;;7361876;32;20616;-56
2024/01/02 01:54:32;;;;;;;2.58;0.45;;;6.80;99.90;;;;;;7360342;32;20168;-56
2024/01/02 01:58:34;;;;;;;4.57;0.80;;;6.80;99.90;;;;;;7363498;32;20159;-56
2024/01/02 02:02:37;;;;;;;3.37;0.60;;;6.80;99.90;;;;;;7362507;32;20108;-56
2024/01/02 02:06:39;;;;;;;3.55;0.62;;;6.80;99.90;;;;;;7358166;32;20190;-57
2024/01/02 02:10:41;;;;;;;5.00;0.90;;;6.80;99.90;;;;;;7365338;32;20606;-56
2024/01/02 02:14:43;;;;;;;5.35;0.90;;;6.80;99.90;;;;;;7361590;32;20134;-55
2024/01/02 02:18:51;;;;;;;3.20;0.80;;;6.80;99.90;;;;;;7357673;32;20208;-55
2024/01/02 02:22:53;;;;;;;3.83;1.25;;;6.80;99.90;;;;;;7362941;32;20200;-56
2024/01/02 02:26:56;;;;;;;2.90;1.00;;;6.80;99.90;;;;;;7355383;32;20103;-55
2024/01/02 02:30:58;;;;;;;3.47;1.25;;;6.80;99.90;;;;;;7359467;32;20501;-56
2024/01/02 02:35:00;;;;;;;3.37;1.05;;;6.80;99.90;;;;;;7360266;32;20115;-56
2024/01/02 02:39:02;;;;;;;2.47;0.85;;;6.80;99.90;;;;;;7359660;32;20143;-56
2024/01/02 02:43:04;;;;;;;2.45;1.10;;;6.80;99.90;;;;;;7358337;32;20712;-56
2024/01/02 02:47:05;;;;;;;2.45;0.65;;;6.80;99.90;;;;;;7359251;32;20229;-56
2024/01/02 02:51:07;;;;;;;3.25;0.60;;;6.90;99.90;;;;;;7360207;32;20399;-56
2024/01/02 02:55:09;;;;;;;2.87;0.50;;;6.70;99.90;;;;;;7359573;32;20130;-56
2024/01/02 02:59:12;;;;;;;0.95;0.45;;;6.70;99.90;;;;;;7357026;32;20206;-56
2024/01/02 03:03:14;;;;;;;1.52;0.20;;;6.80;99.90;;;;;;7352318;32;20171;-56
2024/01/02 03:07:17;;;;;;;1.80;0.25;;;6.80;99.90;;;;;;7361804;32;20129;-55
2024/01/02 03:11:19;;;;;;;0.47;0.30;;;6.70;99.90;;;;;;7357328;32;20230;-54
2024/01/02 03:15:20;;;;;;;1.37;0.30;;;6.70;99.90;;;;;;7361163;32;20163;-56
2024/01/02 03:19:22;;;;;;;2.45;0.30;;;6.70;99.90;;;;;;7355630;32;20692;-55
2024/01/02 03:23:24;;;;;;;2.17;0.40;;;6.70;99.90;;;;;;7353657;32;20150;-56
2024/01/02 03:27:26;;;;;;;0.50;0.20;;;6.60;99.90;;;;;;7363000;32;20099;-55
2024/01/02 03:31:27;;;;;;;0.45;0.20;;;6.60;99.90;;;;;;7356543;32;20095;-56
2024/01/02 03:35:29;;;;;;;1.20;0.30;;;6.60;99.90;;;;;;7350192;32;20119;-56
2024/01/02 03:39:31;;;;;;;1.48;0.30;;;6.60;99.90;;;;;;7357523;32;20115;-55
2024/01/02 03:43:33;;;;;;;3.60;0.20;;;6.60;99.90;;;;;;7362736;32;20803;-55
2024/01/02 03:47:34;;;;;;;1.50;0.20;;;6.60;99.90;;;;;;7355474;32;20278;-56
2024/01/02 03:51:37;;;;;;;0.15;0.05;;;6.60;99.90;;;;;;7361580;32;20188;-55
2024/01/02 03:55:38;;;;;;;3.37;0.30;;;6.60;99.90;;;;;;7359691;32;20208;-56
2024/01/02 03:59:40;;;;;;;1.25;0.30;;;6.60;99.90;;;;;;7356800;32;20106;-57
2024/01/02 04:03:42;;;;;;;1.15;0.20;;;6.60;99.90;;;;;;7364397;32;20301;-56
2024/01/02 04:07:43;;;;;;;4.93;0.40;;;6.60;99.90;;;;;;7358790;32;20164;-55
2024/01/02 04:11:45;;;;;;;0.40;0.10;;;6.60;99.90;;;;;;7361218;32;20128;-56
2024/01/02 04:15:47;;;;;;;0.60;0.20;;;6.60;99.90;;;;;;7362407;32;20441;-56
2024/01/02 04:19:49;;;;;;;0.70;0.10;;;6.60;99.90;;;;;;7357307;32;20473;-57
2024/01/02 04:23:50;;;;;;;1.75;0.35;;;6.60;99.90;;;;;;7356308;32;20190;-55
2024/01/02 04:27:54;;;;;;;0.50;0.17;;;6.60;99.90;;;;;;7364816;32;20162;-53
2024/01/02 04:31:56;;;;;;;0.35;0.10;;;6.60;99.90;;;;;;7357778;32;20127;-55
2024/01/02 04:35:58;;;;;;;1.23;0.00;;;6.60;99.90;;;;;;7359729;32;20103;-55
2024/01/02 04:39:59;;;;;;;0.22;0.10;;;6.60;99.90;;;;;;7357253;32;20151;-57
2024/01/02 04:44:01;;;;;;;0.28;0.10;;;6.70;99.90;;;;;;7365258;32;20567;-56
2024/01/02 04:48:03;;;;;;;0.85;0.05;;;6.70;99.90;;;;;;7362584;32;20218;-55
2024/01/02 04:52:06;;;;;;;1.05;0.20;;;6.70;99.90;;;;;;7370007;32;20138;-55
2024/01/02 04:56:07;;;;;;;0.50;0.20;;;6.70;99.90;;;;;;7353959;32;20325;-56
2024/01/02 05:00:10;;;;;;;1.80;0.10;;;6.80;99.90;;;;;;7361056;32;20223;-55
2024/01/02 05:04:11;;;;;;;1.33;0.10;;;6.80;99.90;;;;;;7358226;32;20127;-56
2024/01/02 05:08:13;;;;;;;0.68;0.20;;;6.80;99.90;;;;;;7364955;32;20123;-54
2024/01/02 05:12:15;;;;;;;1.77;0.30;;;6.90;99.90;;;;;;7363849;32;20100;-56
2024/01/02 05:16:17;;;;;;;0.20;0.15;;;6.90;99.90;;;;;;7360078;32;20222;-54
2024/01/02 05:20:19;;;;;;;1.23;0.20;;;6.90;99.90;;;;;;7360251;32;20139;-55
2024/01/02 05:24:21;;;;;;;0.20;0.10;;;6.90;99.90;;;;;;7354596;32;20150;-56
2024/01/02 05:28:23;;;;;;;0.20;0.20;;;7.00;99.90;;;;;;7363197;32;20833;-55
2024/01/02 05:32:24;;;;;;;0.75;0.30;;;7.00;99.90;;;;;;7366390;32;20192;-55
2024/01/02 05:36:26;;;;;;;0.22;0.20;;;7.10;99.90;;;;;;7363532;32;20126;-56
2024/01/02 05:40:28;;;;;;;2.25;0.40;;;7.20;99.90;;;;;;7361217;32;20508;-56
2024/01/02 05:44:30;;;;;;;0.70;0.40;;;7.20;99.90;;;;;;7363648;32;20235;-56
2024/01/02 05:48:31;;;;;;;0.30;0.20;;;7.30;99.90;;;;;;7361819;32;20145;-53
2024/01/02 05:52:33;;;;;;;1.83;0.50;;;7.30;99.90;;;;;;7350589;32;20243;-55
2024/01/02 05:56:35;;;;;;;0.40;0.30;;;7.40;99.90;;;;;;7357921;32;20529;-54
2024/01/02 06:00:37;;;;;;;0.62;0.30;;;7.50;99.90;;;;;;7357783;32;20115;-55
2024/01/02 06:04:39;;;;;;;0.73;0.50;;;7.60;99.90;;;;;;7353477;32;20197;-56
2024/01/02 06:08:41;;;;;;;1.17;0.68;;;7.70;99.90;;;;;;7358873;32;20145;-55
2024/01/02 06:12:43;;;;;;;0.85;0.80;;;7.60;99.90;;;;;;7359090;32;20158;-55
2024/01/02 06:16:45;;;;;;;2.42;0.70;;;7.70;99.90;;;;;;7363770;32;20168;-54
2024/01/02 06:20:47;;;;;;;1.60;0.73;;;7.80;99.90;;;;;;7352016;32;20554;-54
2024/01/02 06:24:48;;;;;;;0.77;0.70;;;7.90;99.90;;;;;;7353559;32;20730;-54
2024/01/02 06:28:50;;;;;;;1.00;0.80;;;8.00;99.90;;;;;;7358220;32;20456;-53
2024/01/02 06:32:52;;;;;;;1.65;0.90;;;8.10;99.90;;;;;;7365477;32;20462;-55
2024/01/02 06:36:54;;;;;;;2.45;1.50;;;8.20;99.90;;;;;;7362268;32;20130;-55
2024/01/02 06:40:56;;;;;;;2.28;0.70;;;8.30;99.90;;;;;;7359732;32;20137;-54
2024/01/02 06:44:57;;;;;;;1.90;0.57;;;8.40;99.90;;;;;;7357309;32;20128;-55
2024/01/02 06:48:59;;;;;;;4.78;0.50;;;8.50;99.90;;;;;;7365568;32;20667;-55
2024/01/02 06:53:01;;;;;;;0.30;0.30;;;8.70;99.90;;;;;;7356592;32;20636;-58
2024/01/02 06:57:03;;;;;;;1.25;0.30;;;9.00;99.90;;;;;;7355284;32;20281;-54
2024/01/02 07:01:05;;;;;;;0.50;0.30;;;9.10;99.90;;;;;;7363763;32;20192;-54
2024/01/02 07:05:07;;;;;;;0.30;0.30;;;9.30;99.90;;;;;;7365110;32;20128;-54
2024/01/02 07:09:09;;;;;;;2.25;0.20;;;9.40;99.90;;;;;;7364242;32;20972;-55
2024/01/02 07:13:10;;;;;;;0.17;0.17;;;9.50;99.90;;;;;;7357710;32;20504;-55
2024/01/02 07:17:12;;;;;;;1.00;0.10;;;9.70;99.90;;;;;;7358270;32;20127;-55
2024/01/02 07:21:14;;;;;;;0.40;0.20;;;9.70;99.90;;;;;;7363685;32;20138;-55
2024/01/02 07:25:16;;;;;;;0.28;0.10;;;9.80;99.90;;;;;;7360286;32;20260;-55
2024/01/02 07:29:18;;;;;;;0.68;0.20;;;9.90;99.90;;;;;;7361788;32;20134;-54
2024/01/02 07:33:19;;;;;;;3.03;0.30;;;9.90;99.90;;;;;;7361613;32;20281;-55
2024/01/02 07:37:21;;;;;;;0.30;0.20;;;10.00;99.90;;;;;;7367162;32;20138;-55
2024/01/02 07:41:23;;;;;;;1.27;0.25;;;10.00;99.90;;;;;;7364179;32;20202;-56
2024/01/02 07:45:25;;;;;;;0.10;0.10;;;10.20;99.90;;;;;;7356413;32;20254;-56
2024/01/02 07:49:27;;;;;;;0.35;0.22;;;10.10;99.90;;;;;;7362868;32;20836;-54
2024/01/02 07:53:29;;;;;;;1.08;0.30;;;10.20;99.90;;;;;;7361645;32;20207;-57
2024/01/02 07:57:30;;;;;;;1.33;0.20;;;10.30;99.90;;;;;;7359837;32;20099;-55
2024/01/02 08:01:32;;;;;;;1.10;0.20;;;10.30;99.90;;;;;;7351794;32;20132;-57
2024/01/02 08:05:34;;;;;;;0.25;0.10;;;10.40;99.90;;;;;;7362558;32;20487;-55
2024/01/02 08:09:36;;;;;;;0.82;0.22;;;10.40;99.90;;;;;;7364143;32;20127;-55
2024/01/02 08:13:38;;;;;;;1.65;0.20;;;10.40;99.90;;;;;;7366376;32;20480;-56
2024/01/02 08:17:40;;;;;;;0.50;0.15;;;10.40;99.90;;;;;;7367785;32;20190;-56
2024/01/02 08:21:42;;;;;;;0.43;0.20;;;10.40;99.90;;;;;;7368093;32;20183;-56
2024/01/02 08:25:44;;;;;;;2.28;0.30;;;10.40;99.90;;;;;;7367041;32;20138;-58
2024/01/02 08:29:45;;;;;;;1.23;0.30;;;10.50;99.90;;;;;;7361857;32;20245;-57
2024/01/02 08:33:48;;;;;;;2.00;0.40;;;10.50;99.90;;;;;;7359808;32;20103;-56
2024/01/02 08:37:49;;;;;;;0.30;0.30;;;10.50;99.90;;;;;;7365653;32;20206;-57
2024/01/02 08:41:51;;;;;;;1.95;0.40;;;10.40;99.90;;;;;;7357740;32;20127;-55
2024/01/02 08:45:53;;;;;;;0.40;0.40;;;10.50;99.90;;;;;;7356206;32;20195;-56
2024/01/02 08:49:55;;;;;;;1.27;0.30;;;10.50;99.90;;;;;;7362286;32;20156;-56
2024/01/02 08:53:57;;;;;;;1.30;0.60;;;10.50;99.90;;;;;;7361248;32;20099;-57
2024/01/02 08:58:00;;;;;;;1.02;0.70;;;10.50;99.90;;;;;;7359056;32;20187;-56
2024/01/02 09:02:02;;;;;;;1.25;0.90;;;10.50;99.90;;;;;;7360853;32;20171;-56
2024/01/02 09:06:04;;;;;;;1.60;1.00;;;10.60;99.90;;;;;;7361958;32;20504;-56
2024/01/02 09:10:07;;;;;;;0.98;0.88;;;10.50;99.90;;;;;;7363873;32;20111;-57
2024/01/02 09:14:09;;;;;;;2.20;1.10;;;10.60;99.90;;;;;;7359920;32;20637;-56
2024/01/02 09:18:10;;;;;;;1.17;0.98;;;10.60;99.90;;;;;;7355063;32;20206;-56
2024/01/02 09:22:13;;;;;;;1.92;1.30;;;10.60;99.90;;;;;;7356404;32;20161;-56
2024/01/02 09:26:21;;;;;;;2.97;1.05;;;10.60;99.90;;;;;;7358947;32;20670;-56
2024/01/02 09:30:23;;;;;;;1.98;1.00;;;10.70;99.90;;;;;;7365229;32;20119;-56
2024/01/02 09:34:25;;;;;;;1.20;1.10;;;10.70;99.90;;;;;;7360063;32;20206;-57
2024/01/02 09:38:27;;;;;;;1.83;1.05;;;10.70;99.90;;;;;;7367926;32;20127;-56
2024/01/02 09:43:04;;;;;;;3.17;0.95;;;10.70;99.90;;;;;;7358868;32;20123;-55
2024/01/02 09:47:29;;;;;;;1.67;0.70;;;10.70;99.90;;;;;;7362386;32;20166;-56
2024/01/02 09:51:40;;;;;;;1.23;0.73;;;10.70;99.90;;;;;;7355271;32;20371;-57
2024/01/02 09:55:51;;;;;;;0.60;0.50;;;10.70;99.90;;;;;;7361869;32;20143;-57
2024/01/02 10:00:17;;;;;;;1.40;0.30;;;10.70;99.90;;;;;;7357004;32;20155;-65
2024/01/02 10:04:41;;;;;;;2.33;0.43;;;10.80;99.90;;;;;;7361950;32;20182;-64
2024/01/02 10:09:09;;;;;;;2.03;0.65;;;10.90;99.90;;;;;;7364558;32;20427;-56
2024/01/02 10:13:21;;;;;;;1.52;0.50;;;10.90;99.90;;;;;;7330086;32;20208;-57
2024/01/02 10:17:48;;;;;;;0.50;0.30;;;10.90;99.90;;;;;;7350598;32;20657;-56
2024/01/02 10:22:12;;;;;;;0.30;0.30;;;10.90;99.90;;;;;;7366501;32;20173;-58
2024/01/02 10:26:18;;;;;;;1.40;0.20;;;10.90;99.90;;;;;;7360791;32;20103;-57
2024/01/02 10:30:21;;;;;;;0.20;0.20;;;10.80;99.90;;;;;;7354466;32;20461;-58
2024/01/02 10:34:53;;;;;;;0.20;0.20;;;10.90;99.90;;;;;;7353912;32;20176;-57
2024/01/02 10:39:04;;;;;;;0.60;0.20;;;10.90;99.90;;;;;;7350566;32;20119;-57
2024/01/02 10:43:22;;;;;;;0.52;0.20;;;11.00;99.90;;;;;;7354228;32;20640;-57
2024/01/02 10:47:55;;;;;;;0.30;0.10;;;11.00;99.90;;;;;;7358637;32;20170;-57
2024/01/02 10:52:05;;;;;;;0.93;0.28;;;11.00;99.90;;;;;;7361886;32;20129;-58
2024/01/02 10:56:32;;;;;;;0.35;0.05;;;11.00;99.90;;;;;;7358970;32;20319;-55
2024/01/02 11:00:42;;;;;;;0.70;0.10;;;11.00;99.90;;;;;;7359857;32;20247;-57
2024/01/02 11:05:15;;;;;;;0.30;0.10;;;10.90;99.90;;;;;;7363869;32;20134;-57
2024/01/02 11:09:26;;;;;;;0.75;0.10;;;10.90;99.90;;;;;;7358377;32;20498;-58
2024/01/02 11:13:29;;;;;;;0.45;0.20;;;10.90;99.90;;;;;;7360835;32;20273;-59
2024/01/02 11:17:34;;;;;;;0.13;0.10;;;10.90;99.90;;;;;;7353285;32;20216;-57
2024/01/02 11:22:00;;;;;;;0.37;0.10;;;10.90;99.90;;;;;;7360525;32;20220;-57
2024/01/02 11:26:11;;;;;;;0.60;0.10;;;10.90;99.90;;;;;;7352985;32;20168;-55
2024/01/02 11:30:17;;;;;;;0.40;0.10;;;10.80;99.90;;;;;;7362166;32;20110;-56
2024/01/02 11:34:59;;;;;;;0.30;0.10;;;10.80;99.90;;;;;;7357668;32;20225;-55
2024/01/02 11:39:08;;;;;;;0.65;0.20;;;10.70;99.90;;;;;;7356755;32;20194;-56
2024/01/02 11:43:38;;;;;;;0.50;0.10;;;10.70;99.90;;;;;;7365905;32;20484;-57
2024/01/02 11:47:44;;;;;;;0.60;0.10;;;10.60;99.90;;;;;;7360593;32;20123;-57
2024/01/02 11:51:56;;;;;;;0.10;0.00;;;10.60;99.90;;;;;;7363086;32;20266;-57
2024/01/02 11:56:05;;;;;;;0.52;0.20;;;10.50;99.90;;;;;;7354852;32;20578;-57
2024/01/02 12:00:10;;;;;;;0.20;0.10;;;10.40;99.90;;;;;;7366669;32;20156;-56
2024/01/02 12:04:49;;;;;;;1.80;0.28;;;10.30;99.90;;;;;;7362528;32;20164;-57
2024/01/02 12:09:04;;;;;;;1.00;0.20;;;10.30;99.90;;;;;;7356113;32;20120;-58
2024/01/02 12:13:16;;;;;;;0.50;0.10;;;10.30;99.90;;;;;;7365361;32;20272;-56
2024/01/02 12:17:21;;;;;;;1.15;0.30;;;10.30;99.90;;;;;;7360610;32;20306;-56
2024/01/02 12:21:31;;;;;;;0.93;0.30;;;10.30;99.90;;;;;;7360832;32;20223;-58
2024/01/02 12:25:33;;;;;;;1.00;0.32;;;10.20;99.90;;;;;;7363580;32;20169;-57
2024/01/02 12:29:51;;;;;;;1.95;0.25;;;10.20;99.90;;;;;;7367037;32;20178;-57
2024/01/02 12:34:13;;;;;;;1.23;0.30;;;10.10;99.90;;;;;;7363830;32;20186;-56
2024/01/02 12:38:24;;;;;;;0.75;0.30;;;10.10;99.90;;;;;;7354538;32;20235;-56
2024/01/02 12:42:31;;;;;;;3.30;0.35;;;10.10;99.90;;;;;;7370254;32;20134;-56
2024/01/02 12:46:58;;;;;;;1.23;0.40;;;10.10;99.90;;;;;;7359320;32;20245;-57
2024/01/02 12:51:01;;;;;;;2.67;0.37;;;10.00;99.90;;;;;;7362528;32;20239;-57
2024/01/02 12:55:07;;;;;;;0.80;0.40;;;9.90;99.90;;;;;;7363918;32;20493;-57
2024/01/02 12:59:09;;;;;;;0.77;0.20;;;9.80;99.90;;;;;;7363992;32;20134;-56
2024/01/02 13:03:14;;;;;;;0.75;0.10;;;9.70;99.90;;;;;;7361660;32;20360;-58
2024/01/02 13:07:17;;;;;;;1.37;0.20;;;9.70;99.90;;;;;;7361901;32;20115;-58
2024/01/02 13:11:20;;;;;;;1.37;0.30;;;9.60;99.90;;;;;;7364172;32;20280;-57
2024/01/02 13:15:22;;;;;;;0.35;0.20;;;9.60;99.90;;;;;;7361015;32;20121;-57
2024/01/02 13:19:26;;;;;;;0.50;0.20;;;9.50;99.90;;;;;;7366994;32;20528;-58
2024/01/02 13:23:28;;;;;;;1.35;0.20;;;9.50;99.90;;;;;;7360747;32;20194;-57
2024/01/02 13:27:30;;;;;;;1.35;0.17;;;9.50;99.90;;;;;;7362500;32;20209;-56
2024/01/02 13:36:45;;;;;;;1.62;0.22;;;9.40;99.90;;;;;;7345354;32;20225;-56
2024/01/02 13:40:47;;;;;;;1.17;0.50;;;9.50;99.90;;;;;;7362819;32;20111;-57
2024/01/02 13:44:50;;;;;;;1.15;0.30;;;9.40;99.90;;;;;;7357929;32;20102;-59
2024/01/02 13:48:55;;;;;;;0.37;0.20;;;9.40;99.90;;;;;;7356427;32;20315;-58
2024/01/02 13:53:05;;;;;;;0.75;0.20;;;9.40;99.90;;;;;;7348351;32;20981;-57
2024/01/02 13:57:08;;;;;;;0.85;0.28;;;9.30;99.90;;;;;;7361148;32;20178;-58
2024/01/02 14:01:09;;;;;;;0.40;0.30;;;9.30;99.90;;;;;;7363999;32;20225;-58
2024/01/02 14:05:12;;;;;;;0.85;0.30;;;9.30;99.90;;;;;;7357984;32;20182;-56
2024/01/02 14:09:18;;;;;;;1.37;0.30;;;9.30;99.90;;;;;;7358455;32;20208;-58
2024/01/02 14:13:29;;;;;;;1.08;0.47;;;9.20;99.90;;;;;;7361391;32;20206;-58
2024/01/02 14:17:38;;;;;;;8.45;5.62;;;9.20;99.90;;;;;;7355093;32;20186;-57
2024/01/02 14:21:42;;;;;;;0.90;0.52;;;9.20;99.90;;;;;;7358015;32;20569;-57
2024/01/02 14:26:04;;;;;;;1.58;0.50;;;9.20;99.90;;;;;;7357065;32;21053;-58
2024/01/02 14:30:27;;;;;;;0.80;0.50;;;9.20;99.90;;;;;;7358843;32;20199;-57
2024/01/02 14:34:29;;;;;;;1.48;0.43;;;9.30;99.90;;;;;;7358606;32;20139;-56
2024/01/02 14:38:37;;;;;;;2.72;0.40;;;9.20;99.90;;;;;;7363386;32;20212;-58
2024/01/02 14:43:05;;;;;;;1.48;0.50;;;9.30;99.90;;;;;;7355487;32;20730;-56
2024/01/02 14:47:45;;;;;;;2.05;0.50;;;9.30;99.90;;;;;;7361542;32;20159;-58
2024/01/02 14:51:47;;;;;;;1.10;0.57;;;9.30;99.90;;;;;;7355278;32;20744;-56
2024/01/02 14:56:09;;;;;;;0.70;0.30;;;9.40;99.90;;;;;;7358249;32;20215;-57
2024/01/02 15:00:12;;;;;;;0.35;0.20;;;9.40;99.90;;;;;;7361678;32;20495;-57
2024/01/02 15:04:39;;;;;;;1.50;0.50;;;9.50;99.90;;;;;;7365293;32;20228;-57
2024/01/02 15:08:41;;;;;;;;;;;9.50;99.90;;;;;;7358941;32;20276;-57
2024/01/02 15:13:22;;;;;;;1.00;0.40;;;9.40;99.90;;;;;;7357643;32;20006;-56
2024/01/02 15:17:44;;;;;;;1.10;0.40;;;9.50;99.90;;;;;;7360134;32;20222;-58
2024/01/02 15:22:10;;;;;;;0.40;0.28;;;9.40;99.90;;;;;;7360488;32;20135;-56
2024/01/02 15:26:17;;;;;;;0.90;0.30;;;9.50;99.90;;;;;;7359271;32;20679;-56
2024/01/02 15:30:19;;;;;;;0.60;0.30;;;9.50;99.90;;;;;;7361304;32;20227;-59
2024/01/02 15:34:38;;;;;;;1.60;0.50;;;9.40;99.90;;;;;;7366603;32;20522;-58
2024/01/02 15:38:52;;;;;;;1.62;0.50;;;9.40;99.90;;;;;;7355248;32;20193;-58
2024/01/02 15:43:05;;;;;;;0.62;0.32;;;9.40;99.90;;;;;;7356301;32;20234;-59
2024/01/02 15:47:25;;;;;;;1.62;1.05;;;9.40;99.90;;;;;;7359059;32;20634;-57
2024/01/02 15:51:29;;;;;;;1.23;0.40;;;9.40;99.90;;;;;;7353394;32;20119;-56
2024/01/02 15:55:37;;;;;;;0.55;0.40;;;9.30;99.90;;;;;;7356127;32;20233;-57
2024/01/02 15:59:56;;;;;;;1.55;0.32;;;9.30;99.90;;;;;;7362137;32;20153;-54
2024/01/02 16:04:36;;;;;;;0.60;0.40;;;9.30;99.90;;;;;;7359152;32;20486;-55
2024/01/02 16:09:29;;;;;;;0.40;0.30;;;9.30;99.90;;;;;;7364764;32;20583;-54
2024/01/02 16:14:19;;;;;;;1.55;0.50;;;9.30;99.90;;;;;;7324033;32;20137;-56
2024/01/02 16:18:33;;;;;;;0.90;0.30;;;9.30;99.90;;;;;;7256913;32;20164;-56
2024/01/02 16:23:12;;;;;;;0.40;0.30;;;9.30;99.90;;;;;;7315285;32;20214;-56
2024/01/02 16:27:17;;;;;;;1.27;0.50;;;9.30;99.90;;;;;;7361512;32;20218;-56
2024/01/02 16:31:44;;;;;;;1.00;0.30;;;9.30;99.90;;;;;;7366272;32;20119;-57
2024/01/02 16:36:29;;;;;;;0.70;0.40;;;9.30;99.90;;;;;;7354355;32;20524;-54
2024/01/02 16:40:47;;;;;;;1.55;0.40;;;9.30;99.90;;;;;;7365288;32;20185;-56
2024/01/02 16:44:50;;;;;;;1.20;0.50;;;9.30;99.90;;;;;;7363144;32;20619;-54
2024/01/02 16:48:53;;;;;;;0.55;0.40;;;9.30;99.90;;;;;;7366947;32;20205;-56
2024/01/02 16:52:55;;;;;;;0.90;0.40;;;9.40;99.90;;;;;;7363741;32;20138;-56
2024/01/02 16:57:01;;;;;;;1.12;0.40;;;9.30;99.90;;;;;;7365619;32;20300;-55
2024/01/02 17:01:03;;;;;;;1.05;0.50;;;9.30;99.90;;;;;;7363146;32;20140;-55
2024/01/02 17:05:07;;;;;;;0.80;0.50;;;9.30;99.90;;;;;;7360948;32;20103;-56
2024/01/02 17:09:11;;;;;;;0.85;0.40;;;9.40;99.90;;;;;;7368030;32;20242;-55
2024/01/02 17:13:24;;;;;;;2.03;0.40;;;9.30;99.90;;;;;;7366744;32;20169;-56
2024/01/02 17:17:27;;;;;;;1.08;0.40;;;9.40;99.90;;;;;;7358076;32;20207;-55
2024/01/02 17:21:29;;;;;;;2.22;0.60;;;9.40;99.90;;;;;;7364775;32;20843;-55
2024/01/02 17:25:32;;;;;;;0.68;0.30;;;9.40;99.90;;;;;;7361091;32;20115;-56
2024/01/02 17:29:34;;;;;;;1.00;0.20;;;9.40;99.90;;;;;;7360717;32;20103;-55
2024/01/02 17:33:49;;;;;;;0.52;0.30;;;9.40;99.90;;;;;;7361669;32;20356;-55
2024/01/02 17:37:51;;;;;;;2.08;0.30;;;9.40;99.90;;;;;;7358664;32;20271;-56
2024/01/02 17:41:53;;;;;;;0.35;0.20;;;9.50;99.90;;;;;;7361969;32;20254;-56
2024/01/02 17:45:56;;;;;;;2.05;0.40;;;9.60;99.90;;;;;;7357235;32;20312;-55
2024/01/02 17:49:57;;;;;;;0.80;0.50;;;9.50;99.90;;;;;;7361622;32;20182;-55
2024/01/02 17:54:00;;;;;;;1.40;0.50;;;9.60;99.90;;;;;;7358366;32;20366;-55
2024/01/02 17:58:08;;;;;;;2.30;0.40;;;9.60;99.90;;;;;;7355644;32;20199;-55
2024/01/02 18:02:30;;;;;;;0.50;0.30;;;9.70;99.90;;;;;;7358478;32;20099;-55
2024/01/02 18:07:10;;;;;;;0.82;0.30;;;9.80;99.90;;;;;;7355268;32;20252;-54
2024/01/02 18:11:14;;;;;;;0.40;0.20;;;9.90;99.90;;;;;;7353162;32;20241;-54
2024/01/02 18:15:38;;;;;;;1.85;0.20;;;10.20;99.90;;;;;;7356975;32;20686;-55
2024/01/02 18:20:00;;;;;;;0.22;0.20;;;10.30;99.90;;;;;;7356545;32;20154;-55
2024/01/02 18:24:22;;;;;;;0.10;0.10;;;10.40;99.90;;;;;;7365145;32;20607;-55
2024/01/02 18:28:31;;;;;;;0.10;0.10;;;10.50;99.90;;;;;;7367071;32;20163;-55
2024/01/02 18:33:21;;;;;;;0.77;0.30;;;10.60;99.90;;;;;;7359894;32;20095;-55
2024/01/02 18:37:39;;;;;;;1.27;0.35;;;10.50;99.90;;;;;;7347161;32;20128;-55
2024/01/02 18:41:47;;;;;;;;;;;10.70;99.90;;;;;;7354724;32;20154;-55
2024/01/02 18:45:55;;;;;;;1.33;0.40;;;10.80;99.90;;;;;;7363013;32;20214;-54
2024/01/02 18:49:57;;;;;;;;;;;10.90;99.90;;;;;;7354252;32;20202;-54
2024/01/02 18:54:27;;;;;;;0.98;0.20;;;10.80;99.90;;;;;;7358555;32;20050;-55
2024/01/02 18:58:30;;;;;;;1.42;0.30;;;10.70;99.90;;;;;;7353501;32;20297;-55
2024/01/02 19:02:50;;;;;;;0.43;0.20;;;10.80;99.90;;;;;;7347110;32;20131;-54
2024/01/02 19:06:52;;;;;;;0.20;0.17;;;10.80;99.90;;;;;;7365064;32;20231;-55
2024/01/02 19:10:53;;;;;;;2.45;0.40;;;10.90;99.90;;;;;;7365628;32;20203;-55
2024/01/02 19:14:59;;;;;;;0.75;0.20;;;10.80;99.90;;;;;;7363281;32;20126;-55
2024/01/02 19:19:02;;;;;;;0.82;0.20;;;10.90;99.90;;;;;;7362453;32;20301;-55
2024/01/02 19:23:06;;;;;;;0.32;0.20;;;10.90;99.90;;;;;;7357530;32;20171;-54
2024/01/02 19:27:08;;;;;;;1.48;0.20;;;10.80;99.90;;;;;;7360726;32;20245;-56
2024/01/02 19:31:11;;;;;;;1.33;0.40;;;10.80;99.90;;;;;;7351747;32;20673;-56
2024/01/02 19:35:13;;;;;;;0.90;0.40;;;10.90;99.90;;;;;;7355259;32;20142;-55
2024/01/02 19:39:22;;;;;;;2.60;0.50;;;11.00;99.90;;;;;;7358245;32;20243;-53
2024/01/02 19:43:24;;;;;;;3.03;0.30;;;11.10;99.90;;;;;;7348697;32;20258;-54
2024/01/02 19:47:26;;;;;;;1.58;0.47;;;11.20;99.90;;;;;;7355344;32;20644;-54
2024/01/02 19:51:28;;;;;;;1.42;0.30;;;11.20;99.90;;;;;;7360028;32;20533;-55
2024/01/02 19:55:30;;;;;;;2.20;0.37;;;11.20;99.90;;;;;;7360221;32;20751;-56
2024/01/02 19:59:32;;;;;;;1.95;0.30;;;11.20;99.90;;;;;;7363523;32;20309;-55
2024/01/02 20:03:40;;;;;;;2.80;0.50;;;11.10;99.90;;;;;;7358502;32;20331;-55
2024/01/02 20:07:43;;;;;;;2.60;0.20;;;11.10;99.90;;;;;;7361626;32;20290;-56
2024/01/02 20:11:45;;;;;;;2.47;0.57;;;11.10;99.90;;;;;;7361868;32;21209;-56
2024/01/02 20:15:47;;;;;;;6.35;0.80;;;11.00;99.90;;;;;;7359269;32;20125;-55
2024/01/02 20:19:51;;;;;;;4.45;0.60;;;11.00;99.90;;;;;;7359000;32;20130;-54
2024/01/02 20:24:02;;;;;;;3.85;0.60;;;10.90;99.90;;;;;;7364802;32;20204;-57
2024/01/02 20:28:04;;;;;;;4.07;0.40;;;11.00;99.90;;;;;;7365635;32;20146;-55
2024/01/02 20:32:07;;;;;;;1.60;0.52;;;11.00;99.90;;;;;;7362119;32;20182;-56
2024/01/02 20:36:15;;;;;;;7.37;0.98;;;11.00;99.90;;;;;;7362777;32;20106;-55
2024/01/02 20:40:36;;;;;;;4.40;0.70;;;11.10;99.90;;;;;;7363085;32;20122;-55
2024/01/02 20:44:38;;;;;;;3.70;0.57;;;11.10;99.90;;;;;;7354001;32;20119;-55
2024/01/02 20:48:40;;;;;;;5.03;0.90;;;11.20;99.90;;;;;;7359407;32;20262;-57
2024/01/02 20:52:42;;;;;;;3.37;0.50;;;11.20;99.90;;;;;;7362249;32;20174;-55
2024/01/02 20:56:47;;;;;;;4.78;0.88;;;11.30;99.90;;;;;;7367312;32;20273;-56
2024/01/02 21:00:48;;;;;;;4.45;0.60;;;11.30;99.90;;;;;;7368201;32;20103;-56
2024/01/02 21:04:56;;;;;;;4.20;0.50;;;11.20;99.90;;;;;;7359278;32;20245;-55
2024/01/02 21:08:58;;;;;;;4.22;0.60;;;11.20;99.90;;;;;;7361554;32;20268;-55
2024/01/02 21:13:04;;;;;;;5.28;0.62;;;11.20;99.90;;;;;;7353173;32;20592;-55
2024/01/02 21:17:13;;;;;;;3.28;0.88;;;11.20;99.90;;;;;;7362461;32;20127;-55
2024/01/02 21:21:36;;;;;;;5.68;0.73;;;11.30;99.90;;;;;;7363157;32;20356;-56
2024/01/02 21:25:38;;;;;;;7.18;0.77;;;11.40;99.90;;;;;;7357498;32;20103;-55
2024/01/02 21:29:40;;;;;;;2.03;0.50;;;11.30;99.90;;;;;;7359099;32;20122;-55
2024/01/02 21:33:42;;;;;;;3.17;0.60;;;11.40;99.90;;;;;;7366789;32;20446;-55
2024/01/02 21:37:44;;;;;;;4.72;0.90;;;11.40;99.90;;;;;;7361896;32;20302;-55
2024/01/02 21:41:46;;;;;;;4.60;1.02;;;11.50;99.90;;;;;;7364888;32;20253;-55